sensor_id;sensor_type;location;lat;lon;timestamp;P1;durP1;ratioP1;P2;durP2;ratioP2
74543;SDS011;63016;55.030;38.710;2024-03-06T00:01:30;15.85;;;4.90;;
74543;SDS011;63016;55.030;38.710;2024-03-06T00:03:56;12.98;;;4.63;;
74543;SDS011;63016;55.030;38.710;2024-03-06T00:06:22;14.27;;;4.60;;
74543;SDS011;63016;55.030;38.710;2024-03-06T00:08:49;11.80;;;4.93;;
74543;SDS011;63016;55.030;38.710;2024-03-06T00:11:16;10.85;;;5.05;;
74543;SDS011;63016;55.030;38.710;2024-03-06T00:13:42;12.00;;;5.05;;
74543;SDS011;63016;55.030;38.710;2024-03-06T00:16:08;16.17;;;5.15;;
74543;SDS011;63016;55.030;38.710;2024-03-06T00:18:34;13.68;;;5.45;;
74543;SDS011;63016;55.030;38.710;2024-03-06T00:20:59;20.27;;;6.60;;
74543;SDS011;63016;55.030;38.710;2024-03-06T00:23:25;12.75;;;5.15;;
74543;SDS011;63016;55.030;38.710;2024-03-06T00:25:51;15.75;;;5.50;;
74543;SDS011;63016;55.030;38.710;2024-03-06T00:28:17;14.05;;;5.57;;
74543;SDS011;63016;55.030;38.710;2024-03-06T00:30:42;11.77;;;5.38;;
74543;SDS011;63016;55.030;38.710;2024-03-06T00:33:08;15.32;;;5.65;;
74543;SDS011;63016;55.030;38.710;2024-03-06T00:35:34;14.13;;;5.78;;
74543;SDS011;63016;55.030;38.710;2024-03-06T00:37:59;17.95;;;5.93;;
74543;SDS011;63016;55.030;38.710;2024-03-06T00:40:28;18.55;;;6.82;;
74543;SDS011;63016;55.030;38.710;2024-03-06T00:42:57;16.33;;;6.25;;
74543;SDS011;63016;55.030;38.710;2024-03-06T00:45:23;14.98;;;5.57;;
74543;SDS011;63016;55.030;38.710;2024-03-06T00:47:49;14.18;;;5.60;;
74543;SDS011;63016;55.030;38.710;2024-03-06T00:50:14;13.70;;;5.60;;
74543;SDS011;63016;55.030;38.710;2024-03-06T00:52:44;12.88;;;5.18;;
74543;SDS011;63016;55.030;38.710;2024-03-06T00:55:10;12.30;;;5.50;;
74543;SDS011;63016;55.030;38.710;2024-03-06T00:57:36;14.02;;;5.20;;
74543;SDS011;63016;55.030;38.710;2024-03-06T01:00:02;16.35;;;5.88;;
74543;SDS011;63016;55.030;38.710;2024-03-06T01:02:35;12.32;;;5.55;;
74543;SDS011;63016;55.030;38.710;2024-03-06T01:05:01;15.43;;;5.65;;
74543;SDS011;63016;55.030;38.710;2024-03-06T01:07:28;11.55;;;5.18;;
74543;SDS011;63016;55.030;38.710;2024-03-06T01:09:55;12.77;;;5.75;;
74543;SDS011;63016;55.030;38.710;2024-03-06T01:12:22;16.98;;;6.03;;
74543;SDS011;63016;55.030;38.710;2024-03-06T01:14:48;16.05;;;5.60;;
74543;SDS011;63016;55.030;38.710;2024-03-06T01:17:14;14.18;;;5.25;;
74543;SDS011;63016;55.030;38.710;2024-03-06T01:19:40;13.70;;;5.88;;
74543;SDS011;63016;55.030;38.710;2024-03-06T01:22:05;15.77;;;5.75;;
74543;SDS011;63016;55.030;38.710;2024-03-06T01:24:31;15.27;;;5.45;;
74543;SDS011;63016;55.030;38.710;2024-03-06T01:26:57;13.10;;;5.88;;
74543;SDS011;63016;55.030;38.710;2024-03-06T01:29:24;12.00;;;5.10;;
74543;SDS011;63016;55.030;38.710;2024-03-06T01:31:49;13.77;;;4.97;;
74543;SDS011;63016;55.030;38.710;2024-03-06T01:34:15;9.52;;;4.68;;
74543;SDS011;63016;55.030;38.710;2024-03-06T01:36:40;13.75;;;4.93;;
74543;SDS011;63016;55.030;38.710;2024-03-06T01:39:06;13.40;;;4.82;;
74543;SDS011;63016;55.030;38.710;2024-03-06T01:41:31;11.20;;;4.45;;
74543;SDS011;63016;55.030;38.710;2024-03-06T01:43:57;10.95;;;4.15;;
74543;SDS011;63016;55.030;38.710;2024-03-06T01:46:23;13.05;;;4.45;;
74543;SDS011;63016;55.030;38.710;2024-03-06T01:48:48;11.35;;;5.05;;
74543;SDS011;63016;55.030;38.710;2024-03-06T01:51:14;12.98;;;4.88;;
74543;SDS011;63016;55.030;38.710;2024-03-06T01:53:39;10.27;;;4.00;;
74543;SDS011;63016;55.030;38.710;2024-03-06T01:56:05;9.27;;;3.72;;
74543;SDS011;63016;55.030;38.710;2024-03-06T01:58:33;9.73;;;4.10;;
74543;SDS011;63016;55.030;38.710;2024-03-06T02:00:59;9.02;;;4.00;;
74543;SDS011;63016;55.030;38.710;2024-03-06T02:03:25;11.48;;;3.97;;
74543;SDS011;63016;55.030;38.710;2024-03-06T02:05:51;8.40;;;3.67;;
74543;SDS011;63016;55.030;38.710;2024-03-06T02:08:18;7.47;;;3.63;;
74543;SDS011;63016;55.030;38.710;2024-03-06T02:10:46;9.77;;;3.70;;
74543;SDS011;63016;55.030;38.710;2024-03-06T02:13:12;7.75;;;3.30;;
74543;SDS011;63016;55.030;38.710;2024-03-06T02:15:39;7.95;;;3.70;;
74543;SDS011;63016;55.030;38.710;2024-03-06T02:18:05;9.77;;;3.55;;
74543;SDS011;63016;55.030;38.710;2024-03-06T02:20:31;7.38;;;3.20;;
74543;SDS011;63016;55.030;38.710;2024-03-06T02:22:56;6.63;;;3.33;;
74543;SDS011;63016;55.030;38.710;2024-03-06T02:25:22;7.20;;;3.53;;
74543;SDS011;63016;55.030;38.710;2024-03-06T02:27:47;8.00;;;3.70;;
74543;SDS011;63016;55.030;38.710;2024-03-06T02:30:13;8.52;;;3.30;;
74543;SDS011;63016;55.030;38.710;2024-03-06T02:32:39;7.88;;;3.50;;
74543;SDS011;63016;55.030;38.710;2024-03-06T02:35:04;5.88;;;2.78;;
74543;SDS011;63016;55.030;38.710;2024-03-06T02:37:33;7.35;;;3.15;;
74543;SDS011;63016;55.030;38.710;2024-03-06T02:39:59;7.15;;;3.33;;
74543;SDS011;63016;55.030;38.710;2024-03-06T02:42:27;7.35;;;2.80;;
74543;SDS011;63016;55.030;38.710;2024-03-06T02:44:53;5.53;;;2.85;;
74543;SDS011;63016;55.030;38.710;2024-03-06T02:47:19;7.28;;;3.08;;
74543;SDS011;63016;55.030;38.710;2024-03-06T02:49:45;7.10;;;3.22;;
74543;SDS011;63016;55.030;38.710;2024-03-06T02:52:10;6.60;;;3.30;;
74543;SDS011;63016;55.030;38.710;2024-03-06T02:54:36;7.38;;;3.35;;
74543;SDS011;63016;55.030;38.710;2024-03-06T02:57:01;7.85;;;3.45;;
74543;SDS011;63016;55.030;38.710;2024-03-06T02:59:27;5.22;;;2.70;;
74543;SDS011;63016;55.030;38.710;2024-03-06T03:01:53;6.43;;;3.22;;
74543;SDS011;63016;55.030;38.710;2024-03-06T03:04:18;6.25;;;3.10;;
74543;SDS011;63016;55.030;38.710;2024-03-06T03:06:44;9.23;;;3.30;;
74543;SDS011;63016;55.030;38.710;2024-03-06T03:09:09;8.73;;;3.75;;
74543;SDS011;63016;55.030;38.710;2024-03-06T03:11:37;6.70;;;3.03;;
74543;SDS011;63016;55.030;38.710;2024-03-06T03:14:03;6.13;;;3.03;;
74543;SDS011;63016;55.030;38.710;2024-03-06T03:16:28;6.55;;;3.17;;
74543;SDS011;63016;55.030;38.710;2024-03-06T03:18:54;8.40;;;3.13;;
74543;SDS011;63016;55.030;38.710;2024-03-06T03:21:22;6.18;;;2.85;;
74543;SDS011;63016;55.030;38.710;2024-03-06T03:23:47;8.73;;;3.42;;
74543;SDS011;63016;55.030;38.710;2024-03-06T03:26:14;5.45;;;2.70;;
74543;SDS011;63016;55.030;38.710;2024-03-06T03:28:40;5.88;;;3.10;;
74543;SDS011;63016;55.030;38.710;2024-03-06T03:31:08;7.95;;;3.33;;
74543;SDS011;63016;55.030;38.710;2024-03-06T03:33:35;8.75;;;3.08;;
74543;SDS011;63016;55.030;38.710;2024-03-06T03:36:05;6.55;;;2.63;;
74543;SDS011;63016;55.030;38.710;2024-03-06T03:38:32;8.45;;;3.30;;
74543;SDS011;63016;55.030;38.710;2024-03-06T03:41:00;6.90;;;2.95;;
74543;SDS011;63016;55.030;38.710;2024-03-06T03:43:29;7.25;;;3.20;;
74543;SDS011;63016;55.030;38.710;2024-03-06T03:45:55;7.40;;;3.08;;
74543;SDS011;63016;55.030;38.710;2024-03-06T03:48:21;7.18;;;3.00;;
74543;SDS011;63016;55.030;38.710;2024-03-06T03:50:46;10.30;;;3.60;;
74543;SDS011;63016;55.030;38.710;2024-03-06T03:53:12;7.80;;;3.42;;
74543;SDS011;63016;55.030;38.710;2024-03-06T03:55:37;8.82;;;3.50;;
74543;SDS011;63016;55.030;38.710;2024-03-06T03:58:03;6.55;;;3.22;;
74543;SDS011;63016;55.030;38.710;2024-03-06T04:00:28;8.55;;;3.28;;
74543;SDS011;63016;55.030;38.710;2024-03-06T04:02:55;6.78;;;3.22;;
74543;SDS011;63016;55.030;38.710;2024-03-06T04:05:21;7.25;;;3.70;;
74543;SDS011;63016;55.030;38.710;2024-03-06T04:07:47;9.07;;;3.22;;
74543;SDS011;63016;55.030;38.710;2024-03-06T04:10:13;6.13;;;2.92;;
74543;SDS011;63016;55.030;38.710;2024-03-06T04:12:38;8.13;;;3.58;;
74543;SDS011;63016;55.030;38.710;2024-03-06T04:15:04;9.10;;;3.15;;
74543;SDS011;63016;55.030;38.710;2024-03-06T04:17:30;9.63;;;3.53;;
74543;SDS011;63016;55.030;38.710;2024-03-06T04:19:56;6.70;;;2.97;;
74543;SDS011;63016;55.030;38.710;2024-03-06T04:22:21;9.13;;;3.70;;
74543;SDS011;63016;55.030;38.710;2024-03-06T04:24:47;7.18;;;3.10;;
74543;SDS011;63016;55.030;38.710;2024-03-06T04:27:13;8.23;;;3.40;;
74543;SDS011;63016;55.030;38.710;2024-03-06T04:29:38;7.72;;;3.13;;
74543;SDS011;63016;55.030;38.710;2024-03-06T04:32:04;7.35;;;3.05;;
74543;SDS011;63016;55.030;38.710;2024-03-06T04:34:29;9.38;;;3.78;;
74543;SDS011;63016;55.030;38.710;2024-03-06T04:36:55;8.20;;;2.80;;
74543;SDS011;63016;55.030;38.710;2024-03-06T04:39:21;8.10;;;3.65;;
74543;SDS011;63016;55.030;38.710;2024-03-06T04:41:47;11.38;;;4.20;;
74543;SDS011;63016;55.030;38.710;2024-03-06T04:44:12;7.47;;;3.55;;
74543;SDS011;63016;55.030;38.710;2024-03-06T04:46:38;11.80;;;4.05;;
74543;SDS011;63016;55.030;38.710;2024-03-06T04:49:03;9.68;;;3.70;;
74543;SDS011;63016;55.030;38.710;2024-03-06T04:51:29;10.85;;;3.92;;
74543;SDS011;63016;55.030;38.710;2024-03-06T04:53:55;8.70;;;3.15;;
74543;SDS011;63016;55.030;38.710;2024-03-06T04:56:20;7.63;;;3.13;;
74543;SDS011;63016;55.030;38.710;2024-03-06T04:58:47;10.38;;;3.70;;
74543;SDS011;63016;55.030;38.710;2024-03-06T05:01:12;8.30;;;3.08;;
74543;SDS011;63016;55.030;38.710;2024-03-06T05:03:38;8.45;;;3.15;;
74543;SDS011;63016;55.030;38.710;2024-03-06T05:06:04;6.28;;;3.28;;
74543;SDS011;63016;55.030;38.710;2024-03-06T05:08:30;7.90;;;3.33;;
74543;SDS011;63016;55.030;38.710;2024-03-06T05:10:59;9.13;;;3.75;;
74543;SDS011;63016;55.030;38.710;2024-03-06T05:13:26;8.43;;;3.63;;
74543;SDS011;63016;55.030;38.710;2024-03-06T05:15:51;7.93;;;3.22;;
74543;SDS011;63016;55.030;38.710;2024-03-06T05:18:19;7.97;;;3.20;;
74543;SDS011;63016;55.030;38.710;2024-03-06T05:20:45;9.80;;;3.33;;
74543;SDS011;63016;55.030;38.710;2024-03-06T05:23:11;5.93;;;2.75;;
74543;SDS011;63016;55.030;38.710;2024-03-06T05:25:37;6.00;;;2.70;;
74543;SDS011;63016;55.030;38.710;2024-03-06T05:28:03;8.55;;;3.03;;
74543;SDS011;63016;55.030;38.710;2024-03-06T05:30:29;5.63;;;2.60;;
74543;SDS011;63016;55.030;38.710;2024-03-06T05:32:55;7.65;;;3.08;;
74543;SDS011;63016;55.030;38.710;2024-03-06T05:35:21;6.93;;;2.58;;
74543;SDS011;63016;55.030;38.710;2024-03-06T05:37:47;7.00;;;2.75;;
74543;SDS011;63016;55.030;38.710;2024-03-06T05:40:12;7.40;;;2.85;;
74543;SDS011;63016;55.030;38.710;2024-03-06T05:42:38;6.43;;;2.55;;
74543;SDS011;63016;55.030;38.710;2024-03-06T05:45:04;6.07;;;2.65;;
74543;SDS011;63016;55.030;38.710;2024-03-06T05:47:38;6.28;;;3.15;;
74543;SDS011;63016;55.030;38.710;2024-03-06T05:50:07;5.82;;;2.63;;
74543;SDS011;63016;55.030;38.710;2024-03-06T05:52:35;8.52;;;2.70;;
74543;SDS011;63016;55.030;38.710;2024-03-06T05:55:02;5.00;;;2.45;;
74543;SDS011;63016;55.030;38.710;2024-03-06T05:57:28;7.00;;;2.67;;
74543;SDS011;63016;55.030;38.710;2024-03-06T05:59:53;5.30;;;2.47;;
74543;SDS011;63016;55.030;38.710;2024-03-06T06:02:19;6.78;;;2.53;;
74543;SDS011;63016;55.030;38.710;2024-03-06T06:04:45;6.00;;;2.30;;
74543;SDS011;63016;55.030;38.710;2024-03-06T06:07:11;5.22;;;2.20;;
74543;SDS011;63016;55.030;38.710;2024-03-06T06:09:37;4.70;;;2.03;;
74543;SDS011;63016;55.030;38.710;2024-03-06T06:12:02;7.10;;;2.45;;
74543;SDS011;63016;55.030;38.710;2024-03-06T06:14:28;5.75;;;2.05;;
74543;SDS011;63016;55.030;38.710;2024-03-06T06:16:55;7.10;;;2.63;;
74543;SDS011;63016;55.030;38.710;2024-03-06T06:22:07;7.53;;;2.30;;
74543;SDS011;63016;55.030;38.710;2024-03-06T06:24:32;6.72;;;2.42;;
74543;SDS011;63016;55.030;38.710;2024-03-06T06:26:58;7.55;;;2.55;;
74543;SDS011;63016;55.030;38.710;2024-03-06T06:29:23;7.10;;;2.78;;
74543;SDS011;63016;55.030;38.710;2024-03-06T06:31:49;7.22;;;2.88;;
74543;SDS011;63016;55.030;38.710;2024-03-06T06:34:14;6.63;;;3.28;;
74543;SDS011;63016;55.030;38.710;2024-03-06T06:36:44;5.20;;;2.67;;
74543;SDS011;63016;55.030;38.710;2024-03-06T06:39:10;6.50;;;3.00;;
74543;SDS011;63016;55.030;38.710;2024-03-06T06:41:37;8.55;;;3.85;;
74543;SDS011;63016;55.030;38.710;2024-03-06T06:44:02;6.65;;;2.90;;
74543;SDS011;63016;55.030;38.710;2024-03-06T06:46:28;7.15;;;2.38;;
74543;SDS011;63016;55.030;38.710;2024-03-06T06:51:38;5.28;;;2.97;;
74543;SDS011;63016;55.030;38.710;2024-03-06T06:54:04;8.63;;;3.25;;
74543;SDS011;63016;55.030;38.710;2024-03-06T06:56:31;10.32;;;3.40;;
74543;SDS011;63016;55.030;38.710;2024-03-06T06:58:56;10.98;;;3.20;;
74543;SDS011;63016;55.030;38.710;2024-03-06T07:01:22;7.35;;;3.38;;
74543;SDS011;63016;55.030;38.710;2024-03-06T07:03:47;6.22;;;2.95;;
74543;SDS011;63016;55.030;38.710;2024-03-06T07:06:13;6.63;;;2.92;;
74543;SDS011;63016;55.030;38.710;2024-03-06T07:08:38;9.45;;;3.88;;
74543;SDS011;63016;55.030;38.710;2024-03-06T07:11:04;7.35;;;3.17;;
74543;SDS011;63016;55.030;38.710;2024-03-06T07:13:30;8.60;;;3.70;;
74543;SDS011;63016;55.030;38.710;2024-03-06T07:18:40;9.18;;;4.10;;
74543;SDS011;63016;55.030;38.710;2024-03-06T07:21:11;7.95;;;4.00;;
74543;SDS011;63016;55.030;38.710;2024-03-06T07:23:37;8.13;;;3.97;;
74543;SDS011;63016;55.030;38.710;2024-03-06T07:26:02;8.48;;;3.85;;
74543;SDS011;63016;55.030;38.710;2024-03-06T07:28:28;7.60;;;3.58;;
74543;SDS011;63016;55.030;38.710;2024-03-06T07:30:55;9.88;;;3.97;;
74543;SDS011;63016;55.030;38.710;2024-03-06T07:33:45;9.27;;;4.10;;
74543;SDS011;63016;55.030;38.710;2024-03-06T07:36:10;10.48;;;4.03;;
74543;SDS011;63016;55.030;38.710;2024-03-06T07:38:36;9.20;;;4.15;;
74543;SDS011;63016;55.030;38.710;2024-03-06T07:41:02;12.15;;;5.45;;
74543;SDS011;63016;55.030;38.710;2024-03-06T07:43:27;9.55;;;5.15;;
74543;SDS011;63016;55.030;38.710;2024-03-06T07:45:53;11.40;;;5.00;;
74543;SDS011;63016;55.030;38.710;2024-03-06T07:48:18;12.30;;;4.80;;
74543;SDS011;63016;55.030;38.710;2024-03-06T07:50:44;10.60;;;4.85;;
74543;SDS011;63016;55.030;38.710;2024-03-06T07:53:10;10.63;;;4.78;;
74543;SDS011;63016;55.030;38.710;2024-03-06T07:55:36;12.40;;;4.90;;
74543;SDS011;63016;55.030;38.710;2024-03-06T07:58:01;9.60;;;4.20;;
74543;SDS011;63016;55.030;38.710;2024-03-06T08:00:27;10.70;;;4.80;;
74543;SDS011;63016;55.030;38.710;2024-03-06T08:02:52;11.80;;;4.28;;
74543;SDS011;63016;55.030;38.710;2024-03-06T08:05:18;10.93;;;3.90;;
74543;SDS011;63016;55.030;38.710;2024-03-06T08:07:43;9.25;;;4.05;;
74543;SDS011;63016;55.030;38.710;2024-03-06T08:10:14;10.30;;;4.03;;
74543;SDS011;63016;55.030;38.710;2024-03-06T08:12:43;8.50;;;3.70;;
74543;SDS011;63016;55.030;38.710;2024-03-06T08:15:10;9.73;;;3.53;;
74543;SDS011;63016;55.030;38.710;2024-03-06T08:17:41;7.90;;;3.42;;
74543;SDS011;63016;55.030;38.710;2024-03-06T08:20:08;8.07;;;3.38;;
74543;SDS011;63016;55.030;38.710;2024-03-06T08:22:36;9.68;;;3.63;;
74543;SDS011;63016;55.030;38.710;2024-03-06T08:25:06;8.68;;;3.70;;
74543;SDS011;63016;55.030;38.710;2024-03-06T08:27:36;8.32;;;3.42;;
74543;SDS011;63016;55.030;38.710;2024-03-06T08:30:04;7.28;;;3.50;;
74543;SDS011;63016;55.030;38.710;2024-03-06T08:32:31;8.32;;;3.20;;
74543;SDS011;63016;55.030;38.710;2024-03-06T08:34:59;6.60;;;2.97;;
74543;SDS011;63016;55.030;38.710;2024-03-06T08:37:25;7.80;;;3.08;;
74543;SDS011;63016;55.030;38.710;2024-03-06T08:39:50;5.75;;;2.97;;
74543;SDS011;63016;55.030;38.710;2024-03-06T08:42:16;11.57;;;3.20;;
74543;SDS011;63016;55.030;38.710;2024-03-06T08:44:43;7.82;;;3.10;;
74543;SDS011;63016;55.030;38.710;2024-03-06T08:47:09;6.75;;;2.88;;
74543;SDS011;63016;55.030;38.710;2024-03-06T08:49:35;9.35;;;3.03;;
74543;SDS011;63016;55.030;38.710;2024-03-06T08:52:00;6.72;;;2.90;;
74543;SDS011;63016;55.030;38.710;2024-03-06T08:54:26;8.60;;;3.13;;
74543;SDS011;63016;55.030;38.710;2024-03-06T08:56:51;7.85;;;3.15;;
74543;SDS011;63016;55.030;38.710;2024-03-06T08:59:23;8.82;;;3.85;;
74543;SDS011;63016;55.030;38.710;2024-03-06T09:01:52;6.80;;;3.25;;
74543;SDS011;63016;55.030;38.710;2024-03-06T09:04:19;7.38;;;3.20;;
74543;SDS011;63016;55.030;38.710;2024-03-06T09:06:45;7.47;;;3.42;;
74543;SDS011;63016;55.030;38.710;2024-03-06T09:09:10;5.93;;;3.13;;
74543;SDS011;63016;55.030;38.710;2024-03-06T09:11:40;9.00;;;3.25;;
74543;SDS011;63016;55.030;38.710;2024-03-06T09:14:05;10.10;;;3.25;;
74543;SDS011;63016;55.030;38.710;2024-03-06T09:16:31;6.57;;;3.35;;
74543;SDS011;63016;55.030;38.710;2024-03-06T09:18:56;8.07;;;3.30;;
74543;SDS011;63016;55.030;38.710;2024-03-06T09:21:22;8.13;;;3.70;;
74543;SDS011;63016;55.030;38.710;2024-03-06T09:23:47;6.45;;;3.10;;
74543;SDS011;63016;55.030;38.710;2024-03-06T09:26:16;8.45;;;4.15;;
74543;SDS011;63016;55.030;38.710;2024-03-06T09:28:42;7.75;;;3.15;;
74543;SDS011;63016;55.030;38.710;2024-03-06T09:31:08;10.50;;;3.78;;
74543;SDS011;63016;55.030;38.710;2024-03-06T09:33:33;7.78;;;3.63;;
74543;SDS011;63016;55.030;38.710;2024-03-06T09:35:59;9.52;;;3.60;;
74543;SDS011;63016;55.030;38.710;2024-03-06T09:38:24;11.55;;;4.13;;
74543;SDS011;63016;55.030;38.710;2024-03-06T09:40:50;9.65;;;4.15;;
74543;SDS011;63016;55.030;38.710;2024-03-06T09:43:17;7.80;;;3.72;;
74543;SDS011;63016;55.030;38.710;2024-03-06T09:45:45;10.15;;;4.32;;
74543;SDS011;63016;55.030;38.710;2024-03-06T09:48:15;10.45;;;4.70;;
74543;SDS011;63016;55.030;38.710;2024-03-06T09:50:46;10.63;;;4.22;;
74543;SDS011;63016;55.030;38.710;2024-03-06T09:53:15;7.03;;;3.85;;
74543;SDS011;63016;55.030;38.710;2024-03-06T09:55:42;8.77;;;3.97;;
74543;SDS011;63016;55.030;38.710;2024-03-06T09:58:08;6.47;;;3.42;;
74543;SDS011;63016;55.030;38.710;2024-03-06T10:00:34;12.48;;;3.60;;
74543;SDS011;63016;55.030;38.710;2024-03-06T10:03:00;11.80;;;3.95;;
74543;SDS011;63016;55.030;38.710;2024-03-06T10:05:30;7.82;;;3.05;;
74543;SDS011;63016;55.030;38.710;2024-03-06T10:07:57;9.07;;;3.70;;
74543;SDS011;63016;55.030;38.710;2024-03-06T10:10:24;9.55;;;3.58;;
74543;SDS011;63016;55.030;38.710;2024-03-06T10:12:49;11.63;;;4.35;;
74543;SDS011;63016;55.030;38.710;2024-03-06T10:15:16;8.77;;;3.20;;
74543;SDS011;63016;55.030;38.710;2024-03-06T10:17:41;8.98;;;3.53;;
74543;SDS011;63016;55.030;38.710;2024-03-06T10:20:23;10.00;;;3.92;;
74543;SDS011;63016;55.030;38.710;2024-03-06T10:22:49;8.73;;;3.80;;
74543;SDS011;63016;55.030;38.710;2024-03-06T10:25:19;7.85;;;3.55;;
74543;SDS011;63016;55.030;38.710;2024-03-06T10:28:08;8.18;;;3.55;;
74543;SDS011;63016;55.030;38.710;2024-03-06T10:30:39;8.70;;;3.55;;
74543;SDS011;63016;55.030;38.710;2024-03-06T10:33:07;9.07;;;4.20;;
74543;SDS011;63016;55.030;38.710;2024-03-06T10:35:36;9.82;;;3.78;;
74543;SDS011;63016;55.030;38.710;2024-03-06T10:38:06;7.03;;;3.33;;
74543;SDS011;63016;55.030;38.710;2024-03-06T10:40:36;7.47;;;3.40;;
74543;SDS011;63016;55.030;38.710;2024-03-06T10:43:03;5.07;;;3.00;;
74543;SDS011;63016;55.030;38.710;2024-03-06T10:48:14;8.00;;;3.35;;
74543;SDS011;63016;55.030;38.710;2024-03-06T10:50:42;7.13;;;3.08;;
74543;SDS011;63016;55.030;38.710;2024-03-06T10:53:10;7.35;;;3.20;;
74543;SDS011;63016;55.030;38.710;2024-03-06T10:55:38;7.68;;;3.35;;
74543;SDS011;63016;55.030;38.710;2024-03-06T10:58:07;6.30;;;2.95;;
74543;SDS011;63016;55.030;38.710;2024-03-06T11:00:37;4.90;;;2.83;;
74543;SDS011;63016;55.030;38.710;2024-03-06T11:03:07;7.20;;;3.33;;
74543;SDS011;63016;55.030;38.710;2024-03-06T11:05:40;7.00;;;3.10;;
74543;SDS011;63016;55.030;38.710;2024-03-06T11:08:12;5.20;;;3.00;;
74543;SDS011;63016;55.030;38.710;2024-03-06T11:10:39;6.50;;;2.90;;
74543;SDS011;63016;55.030;38.710;2024-03-06T11:13:22;6.45;;;2.90;;
74543;SDS011;63016;55.030;38.710;2024-03-06T11:15:49;6.32;;;2.85;;
74543;SDS011;63016;55.030;38.710;2024-03-06T11:23:28;5.18;;;2.42;;
74543;SDS011;63016;55.030;38.710;2024-03-06T11:26:04;8.15;;;2.67;;
74543;SDS011;63016;55.030;38.710;2024-03-06T11:28:32;5.72;;;2.40;;
74543;SDS011;63016;55.030;38.710;2024-03-06T11:33:34;4.88;;;2.20;;
74543;SDS011;63016;55.030;38.710;2024-03-06T11:36:20;4.82;;;2.38;;
74543;SDS011;63016;55.030;38.710;2024-03-06T11:41:26;6.15;;;2.25;;
74543;SDS011;63016;55.030;38.710;2024-03-06T11:43:53;4.93;;;2.17;;
74543;SDS011;63016;55.030;38.710;2024-03-06T11:46:21;4.70;;;2.40;;
74543;SDS011;63016;55.030;38.710;2024-03-06T11:51:49;6.60;;;2.25;;
74543;SDS011;63016;55.030;38.710;2024-03-06T11:54:16;5.00;;;2.13;;
74543;SDS011;63016;55.030;38.710;2024-03-06T11:56:48;9.15;;;2.53;;
74543;SDS011;63016;55.030;38.710;2024-03-06T11:59:15;4.63;;;2.05;;
74543;SDS011;63016;55.030;38.710;2024-03-06T12:01:41;4.95;;;1.90;;
74543;SDS011;63016;55.030;38.710;2024-03-06T12:04:07;5.60;;;2.00;;
74543;SDS011;63016;55.030;38.710;2024-03-06T12:06:32;5.45;;;1.98;;
74543;SDS011;63016;55.030;38.710;2024-03-06T12:08:59;3.83;;;1.98;;
74543;SDS011;63016;55.030;38.710;2024-03-06T12:11:25;4.60;;;2.42;;
74543;SDS011;63016;55.030;38.710;2024-03-06T12:13:54;3.80;;;1.50;;
74543;SDS011;63016;55.030;38.710;2024-03-06T12:16:20;5.40;;;1.63;;
74543;SDS011;63016;55.030;38.710;2024-03-06T12:18:46;5.68;;;1.52;;
74543;SDS011;63016;55.030;38.710;2024-03-06T12:21:12;3.70;;;1.50;;
74543;SDS011;63016;55.030;38.710;2024-03-06T12:23:40;3.75;;;1.70;;
74543;SDS011;63016;55.030;38.710;2024-03-06T12:26:07;5.22;;;2.03;;
74543;SDS011;63016;55.030;38.710;2024-03-06T12:28:35;5.88;;;2.08;;
74543;SDS011;63016;55.030;38.710;2024-03-06T12:31:02;6.47;;;1.90;;
74543;SDS011;63016;55.030;38.710;2024-03-06T12:33:28;4.70;;;1.90;;
74543;SDS011;63016;55.030;38.710;2024-03-06T12:36:01;6.88;;;1.77;;
74543;SDS011;63016;55.030;38.710;2024-03-06T12:38:28;4.70;;;1.70;;
74543;SDS011;63016;55.030;38.710;2024-03-06T12:40:54;4.45;;;1.63;;
74543;SDS011;63016;55.030;38.710;2024-03-06T12:43:20;2.88;;;1.40;;
74543;SDS011;63016;55.030;38.710;2024-03-06T12:45:45;3.95;;;1.70;;
74543;SDS011;63016;55.030;38.710;2024-03-06T12:48:11;3.17;;;1.40;;
74543;SDS011;63016;55.030;38.710;2024-03-06T12:50:37;3.17;;;1.67;;
74543;SDS011;63016;55.030;38.710;2024-03-06T12:53:03;2.33;;;1.55;;
74543;SDS011;63016;55.030;38.710;2024-03-06T12:55:32;3.97;;;1.48;;
74543;SDS011;63016;55.030;38.710;2024-03-06T12:57:57;5.40;;;1.95;;
74543;SDS011;63016;55.030;38.710;2024-03-06T13:00:23;3.78;;;1.80;;
74543;SDS011;63016;55.030;38.710;2024-03-06T13:02:49;3.90;;;1.42;;
74543;SDS011;63016;55.030;38.710;2024-03-06T13:05:16;3.67;;;2.05;;
74543;SDS011;63016;55.030;38.710;2024-03-06T13:07:42;4.18;;;1.98;;
74543;SDS011;63016;55.030;38.710;2024-03-06T13:10:08;4.72;;;1.88;;
74543;SDS011;63016;55.030;38.710;2024-03-06T13:12:36;3.60;;;1.95;;
74543;SDS011;63016;55.030;38.710;2024-03-06T13:15:02;4.65;;;2.10;;
74543;SDS011;63016;55.030;38.710;2024-03-06T13:17:28;4.95;;;1.88;;
74543;SDS011;63016;55.030;38.710;2024-03-06T13:19:54;5.47;;;2.05;;
74543;SDS011;63016;55.030;38.710;2024-03-06T13:22:21;3.65;;;2.00;;
74543;SDS011;63016;55.030;38.710;2024-03-06T13:24:47;4.07;;;2.30;;
74543;SDS011;63016;55.030;38.710;2024-03-06T13:27:13;6.03;;;2.00;;
74543;SDS011;63016;55.030;38.710;2024-03-06T13:29:39;5.70;;;2.00;;
74543;SDS011;63016;55.030;38.710;2024-03-06T13:32:06;5.28;;;2.22;;
74543;SDS011;63016;55.030;38.710;2024-03-06T13:34:32;4.22;;;1.73;;
74543;SDS011;63016;55.030;38.710;2024-03-06T13:36:58;3.83;;;1.80;;
74543;SDS011;63016;55.030;38.710;2024-03-06T13:39:24;6.22;;;1.83;;
74543;SDS011;63016;55.030;38.710;2024-03-06T13:41:50;5.25;;;1.75;;
74543;SDS011;63016;55.030;38.710;2024-03-06T13:44:17;3.78;;;1.33;;
74543;SDS011;63016;55.030;38.710;2024-03-06T13:46:43;5.28;;;1.52;;
74543;SDS011;63016;55.030;38.710;2024-03-06T13:49:11;5.10;;;1.27;;
74543;SDS011;63016;55.030;38.710;2024-03-06T13:51:59;2.72;;;1.35;;
74543;SDS011;63016;55.030;38.710;2024-03-06T13:54:24;3.58;;;1.67;;
74543;SDS011;63016;55.030;38.710;2024-03-06T13:56:50;3.28;;;1.20;;
74543;SDS011;63016;55.030;38.710;2024-03-06T13:59:16;2.53;;;1.25;;
74543;SDS011;63016;55.030;38.710;2024-03-06T14:01:42;4.20;;;1.35;;
74543;SDS011;63016;55.030;38.710;2024-03-06T14:04:07;2.58;;;1.15;;
74543;SDS011;63016;55.030;38.710;2024-03-06T14:06:33;2.60;;;1.00;;
74543;SDS011;63016;55.030;38.710;2024-03-06T14:08:59;3.17;;;1.13;;
74543;SDS011;63016;55.030;38.710;2024-03-06T14:11:24;2.42;;;1.17;;
74543;SDS011;63016;55.030;38.710;2024-03-06T14:13:50;3.00;;;1.40;;
74543;SDS011;63016;55.030;38.710;2024-03-06T14:16:16;3.42;;;1.50;;
74543;SDS011;63016;55.030;38.710;2024-03-06T14:18:42;4.38;;;1.23;;
74543;SDS011;63016;55.030;38.710;2024-03-06T14:21:07;2.17;;;1.08;;
74543;SDS011;63016;55.030;38.710;2024-03-06T14:23:33;5.30;;;1.38;;
74543;SDS011;63016;55.030;38.710;2024-03-06T14:25:58;3.22;;;1.30;;
74543;SDS011;63016;55.030;38.710;2024-03-06T14:28:24;3.88;;;1.40;;
74543;SDS011;63016;55.030;38.710;2024-03-06T14:30:49;3.72;;;1.40;;
74543;SDS011;63016;55.030;38.710;2024-03-06T14:33:15;6.65;;;1.30;;
74543;SDS011;63016;55.030;38.710;2024-03-06T14:35:40;2.13;;;1.00;;
74543;SDS011;63016;55.030;38.710;2024-03-06T14:38:06;3.67;;;1.13;;
74543;SDS011;63016;55.030;38.710;2024-03-06T14:40:31;3.00;;;0.90;;
74543;SDS011;63016;55.030;38.710;2024-03-06T14:42:58;4.47;;;1.10;;
74543;SDS011;63016;55.030;38.710;2024-03-06T14:45:24;3.38;;;1.08;;
74543;SDS011;63016;55.030;38.710;2024-03-06T14:47:50;4.05;;;1.00;;
74543;SDS011;63016;55.030;38.710;2024-03-06T14:50:16;4.32;;;1.08;;
74543;SDS011;63016;55.030;38.710;2024-03-06T14:52:41;3.97;;;1.25;;